Turney, Missouri
Current Conditions -  °F | °C
As of 10:15 AM on Sunday 25 Jan 2015 (Local Time) from KGPH Reporting Station
Drizzle Drizzle  
Wind Chill: 25°   Ceiling: 1300
Heat Index: 36°   Visibility: 10mi
Dew Point: 32°   Wind: 17mph
Humidity: 87%   Direction: 320°NW
Pressure: 29.75"   Gusts: 25mph
Location:  39.63°N, 94.32°W
Report Text: KGPH 251615Z AUTO 32015G22KT 10SM -DZ OVC013 02/00 A2975 RMK AO2
Loading
Personal Weather Stations






























Interactive Weather Map New forecast layout! Learn more

10-Day Weather Forecast

Advertisements
Track Severe Weather on mobile